sensor_id;sensor_type;location;lat;lon;timestamp;P1;durP1;ratioP1;P2;durP2;ratioP2
27758;SDS011;15148;48.972;12.794;2023-10-08T00:01:36;6.68;;;4.82;;
27758;SDS011;15148;48.972;12.794;2023-10-08T00:06:43;8.02;;;4.90;;
27758;SDS011;15148;48.972;12.794;2023-10-08T00:11:46;8.40;;;6.18;;
27758;SDS011;15148;48.972;12.794;2023-10-08T00:16:54;13.05;;;6.95;;
27758;SDS011;15148;48.972;12.794;2023-10-08T00:21:56;11.32;;;5.82;;
27758;SDS011;15148;48.972;12.794;2023-10-08T00:27:06;9.40;;;5.25;;
27758;SDS011;15148;48.972;12.794;2023-10-08T00:32:08;9.98;;;5.40;;
27758;SDS011;15148;48.972;12.794;2023-10-08T00:37:14;9.88;;;5.10;;
27758;SDS011;15148;48.972;12.794;2023-10-08T00:42:16;8.95;;;4.60;;
27758;SDS011;15148;48.972;12.794;2023-10-08T00:47:20;7.65;;;4.90;;
27758;SDS011;15148;48.972;12.794;2023-10-08T00:52:27;8.23;;;4.60;;
27758;SDS011;15148;48.972;12.794;2023-10-08T00:57:31;9.90;;;5.00;;
27758;SDS011;15148;48.972;12.794;2023-10-08T01:02:36;8.63;;;4.72;;
27758;SDS011;15148;48.972;12.794;2023-10-08T01:07:50;8.63;;;5.00;;
27758;SDS011;15148;48.972;12.794;2023-10-08T01:12:54;7.57;;;4.38;;
27758;SDS011;15148;48.972;12.794;2023-10-08T01:17:56;6.50;;;4.63;;
27758;SDS011;15148;48.972;12.794;2023-10-08T01:23:03;9.40;;;4.63;;
27758;SDS011;15148;48.972;12.794;2023-10-08T01:28:11;8.48;;;4.40;;
27758;SDS011;15148;48.972;12.794;2023-10-08T01:33:16;7.60;;;4.57;;
27758;SDS011;15148;48.972;12.794;2023-10-08T01:38:22;6.32;;;4.10;;
27758;SDS011;15148;48.972;12.794;2023-10-08T01:43:28;5.95;;;4.00;;
27758;SDS011;15148;48.972;12.794;2023-10-08T01:48:31;7.90;;;4.47;;
27758;SDS011;15148;48.972;12.794;2023-10-08T01:53:39;7.55;;;4.80;;
27758;SDS011;15148;48.972;12.794;2023-10-08T01:58:41;7.15;;;4.57;;
27758;SDS011;15148;48.972;12.794;2023-10-08T02:03:43;8.23;;;4.75;;
27758;SDS011;15148;48.972;12.794;2023-10-08T02:08:47;8.05;;;4.80;;
27758;SDS011;15148;48.972;12.794;2023-10-08T02:13:49;7.82;;;4.75;;
27758;SDS011;15148;48.972;12.794;2023-10-08T02:18:52;6.72;;;4.57;;
27758;SDS011;15148;48.972;12.794;2023-10-08T02:23:54;8.55;;;4.35;;
27758;SDS011;15148;48.972;12.794;2023-10-08T02:28:56;7.68;;;4.65;;
27758;SDS011;15148;48.972;12.794;2023-10-08T02:34:01;6.55;;;4.43;;
27758;SDS011;15148;48.972;12.794;2023-10-08T02:39:03;7.97;;;4.50;;
27758;SDS011;15148;48.972;12.794;2023-10-08T02:44:15;8.48;;;4.85;;
27758;SDS011;15148;48.972;12.794;2023-10-08T02:49:19;6.40;;;4.78;;
27758;SDS011;15148;48.972;12.794;2023-10-08T02:54:23;8.10;;;4.65;;
27758;SDS011;15148;48.972;12.794;2023-10-08T02:59:33;7.30;;;4.60;;
27758;SDS011;15148;48.972;12.794;2023-10-08T03:04:43;6.90;;;5.00;;
27758;SDS011;15148;48.972;12.794;2023-10-08T03:09:49;6.90;;;4.65;;
27758;SDS011;15148;48.972;12.794;2023-10-08T03:14:52;9.10;;;5.20;;
27758;SDS011;15148;48.972;12.794;2023-10-08T03:20:17;9.20;;;5.32;;
27758;SDS011;15148;48.972;12.794;2023-10-08T03:25:40;6.63;;;4.65;;
27758;SDS011;15148;48.972;12.794;2023-10-08T03:30:47;9.35;;;6.35;;
27758;SDS011;15148;48.972;12.794;2023-10-08T03:35:51;7.53;;;4.65;;
27758;SDS011;15148;48.972;12.794;2023-10-08T03:40:55;8.30;;;5.03;;
27758;SDS011;15148;48.972;12.794;2023-10-08T03:46:09;7.75;;;4.65;;
27758;SDS011;15148;48.972;12.794;2023-10-08T03:51:17;8.32;;;4.72;;
27758;SDS011;15148;48.972;12.794;2023-10-08T03:56:22;10.45;;;4.57;;
27758;SDS011;15148;48.972;12.794;2023-10-08T04:01:24;6.45;;;4.45;;
27758;SDS011;15148;48.972;12.794;2023-10-08T04:06:27;6.88;;;4.60;;
27758;SDS011;15148;48.972;12.794;2023-10-08T04:11:39;6.20;;;4.18;;
27758;SDS011;15148;48.972;12.794;2023-10-08T04:16:51;6.95;;;4.50;;
27758;SDS011;15148;48.972;12.794;2023-10-08T04:21:54;8.48;;;4.50;;
27758;SDS011;15148;48.972;12.794;2023-10-08T04:26:56;6.68;;;4.80;;
27758;SDS011;15148;48.972;12.794;2023-10-08T04:31:59;7.55;;;4.70;;
27758;SDS011;15148;48.972;12.794;2023-10-08T04:37:13;7.45;;;4.60;;
27758;SDS011;15148;48.972;12.794;2023-10-08T04:42:20;9.48;;;4.13;;
27758;SDS011;15148;48.972;12.794;2023-10-08T04:47:28;6.50;;;4.60;;
27758;SDS011;15148;48.972;12.794;2023-10-08T04:52:33;6.97;;;4.60;;
27758;SDS011;15148;48.972;12.794;2023-10-08T04:57:44;8.27;;;5.00;;
27758;SDS011;15148;48.972;12.794;2023-10-08T05:02:45;6.28;;;4.38;;
27758;SDS011;15148;48.972;12.794;2023-10-08T05:07:52;9.13;;;4.57;;
27758;SDS011;15148;48.972;12.794;2023-10-08T05:12:54;8.93;;;4.03;;
27758;SDS011;15148;48.972;12.794;2023-10-08T05:18:05;6.10;;;4.55;;
27758;SDS011;15148;48.972;12.794;2023-10-08T05:23:13;8.10;;;4.28;;
27758;SDS011;15148;48.972;12.794;2023-10-08T05:28:22;9.07;;;4.38;;
27758;SDS011;15148;48.972;12.794;2023-10-08T05:33:26;9.63;;;5.50;;
27758;SDS011;15148;48.972;12.794;2023-10-08T05:38:45;6.70;;;4.10;;
27758;SDS011;15148;48.972;12.794;2023-10-08T05:44:01;9.20;;;4.68;;
27758;SDS011;15148;48.972;12.794;2023-10-08T05:49:17;6.60;;;3.97;;
27758;SDS011;15148;48.972;12.794;2023-10-08T05:54:32;6.53;;;4.70;;
27758;SDS011;15148;48.972;12.794;2023-10-08T05:59:34;8.35;;;5.50;;
27758;SDS011;15148;48.972;12.794;2023-10-08T06:04:56;8.98;;;5.40;;
27758;SDS011;15148;48.972;12.794;2023-10-08T06:10:25;9.05;;;4.88;;
27758;SDS011;15148;48.972;12.794;2023-10-08T06:20:49;10.88;;;8.32;;
27758;SDS011;15148;48.972;12.794;2023-10-08T06:25:56;9.52;;;7.10;;
27758;SDS011;15148;48.972;12.794;2023-10-08T06:31:00;13.60;;;8.88;;
27758;SDS011;15148;48.972;12.794;2023-10-08T06:36:03;11.75;;;8.80;;
27758;SDS011;15148;48.972;12.794;2023-10-08T06:41:15;9.88;;;7.68;;
27758;SDS011;15148;48.972;12.794;2023-10-08T06:46:39;7.75;;;6.00;;
27758;SDS011;15148;48.972;12.794;2023-10-08T06:51:41;7.63;;;5.25;;
27758;SDS011;15148;48.972;12.794;2023-10-08T06:56:47;7.03;;;4.85;;
27758;SDS011;15148;48.972;12.794;2023-10-08T07:01:53;8.87;;;5.00;;
27758;SDS011;15148;48.972;12.794;2023-10-08T07:06:55;10.55;;;4.88;;
27758;SDS011;15148;48.972;12.794;2023-10-08T07:11:57;11.00;;;5.78;;
27758;SDS011;15148;48.972;12.794;2023-10-08T07:17:06;9.23;;;5.85;;
27758;SDS011;15148;48.972;12.794;2023-10-08T07:22:09;9.85;;;6.53;;
27758;SDS011;15148;48.972;12.794;2023-10-08T07:27:25;11.80;;;8.38;;
27758;SDS011;15148;48.972;12.794;2023-10-08T07:32:33;13.38;;;8.57;;
27758;SDS011;15148;48.972;12.794;2023-10-08T07:37:36;9.98;;;7.20;;
27758;SDS011;15148;48.972;12.794;2023-10-08T07:42:37;12.00;;;6.15;;
27758;SDS011;15148;48.972;12.794;2023-10-08T07:47:40;8.52;;;6.22;;
27758;SDS011;15148;48.972;12.794;2023-10-08T07:52:42;8.73;;;6.97;;
27758;SDS011;15148;48.972;12.794;2023-10-08T07:57:45;7.60;;;6.60;;
27758;SDS011;15148;48.972;12.794;2023-10-08T08:02:47;14.90;;;8.70;;
27758;SDS011;15148;48.972;12.794;2023-10-08T08:07:51;11.82;;;7.88;;
27758;SDS011;15148;48.972;12.794;2023-10-08T08:12:53;9.20;;;7.30;;
27758;SDS011;15148;48.972;12.794;2023-10-08T08:17:58;11.13;;;5.55;;
27758;SDS011;15148;48.972;12.794;2023-10-08T08:23:01;8.27;;;6.00;;
27758;SDS011;15148;48.972;12.794;2023-10-08T08:28:08;9.35;;;5.95;;
27758;SDS011;15148;48.972;12.794;2023-10-08T08:33:18;7.30;;;5.35;;
27758;SDS011;15148;48.972;12.794;2023-10-08T08:38:28;9.02;;;5.18;;
27758;SDS011;15148;48.972;12.794;2023-10-08T08:43:34;8.10;;;5.35;;
27758;SDS011;15148;48.972;12.794;2023-10-08T08:48:42;7.07;;;4.00;;
27758;SDS011;15148;48.972;12.794;2023-10-08T08:53:49;6.55;;;4.35;;
27758;SDS011;15148;48.972;12.794;2023-10-08T08:58:53;7.55;;;4.38;;
27758;SDS011;15148;48.972;12.794;2023-10-08T09:04:01;6.55;;;4.43;;
27758;SDS011;15148;48.972;12.794;2023-10-08T09:09:07;9.00;;;5.05;;
27758;SDS011;15148;48.972;12.794;2023-10-08T09:14:25;8.57;;;5.30;;
27758;SDS011;15148;48.972;12.794;2023-10-08T09:19:28;8.77;;;5.38;;
27758;SDS011;15148;48.972;12.794;2023-10-08T09:24:34;6.85;;;4.95;;
27758;SDS011;15148;48.972;12.794;2023-10-08T09:29:40;8.38;;;5.25;;
27758;SDS011;15148;48.972;12.794;2023-10-08T09:34:42;7.00;;;4.65;;
27758;SDS011;15148;48.972;12.794;2023-10-08T09:39:45;7.38;;;5.45;;
27758;SDS011;15148;48.972;12.794;2023-10-08T09:44:47;7.63;;;5.15;;
27758;SDS011;15148;48.972;12.794;2023-10-08T09:49:55;6.57;;;4.53;;
27758;SDS011;15148;48.972;12.794;2023-10-08T09:55:06;6.75;;;4.20;;
27758;SDS011;15148;48.972;12.794;2023-10-08T10:00:11;7.78;;;4.57;;
27758;SDS011;15148;48.972;12.794;2023-10-08T10:05:19;6.53;;;4.40;;
27758;SDS011;15148;48.972;12.794;2023-10-08T10:10:26;7.10;;;5.30;;
27758;SDS011;15148;48.972;12.794;2023-10-08T10:15:32;6.90;;;4.30;;
27758;SDS011;15148;48.972;12.794;2023-10-08T10:20:44;6.68;;;4.53;;
27758;SDS011;15148;48.972;12.794;2023-10-08T10:25:47;8.68;;;5.03;;
27758;SDS011;15148;48.972;12.794;2023-10-08T10:30:50;7.50;;;4.32;;
27758;SDS011;15148;48.972;12.794;2023-10-08T10:35:52;10.38;;;5.15;;
27758;SDS011;15148;48.972;12.794;2023-10-08T10:40:55;7.25;;;5.25;;
27758;SDS011;15148;48.972;12.794;2023-10-08T10:46:00;8.32;;;5.22;;
27758;SDS011;15148;48.972;12.794;2023-10-08T10:51:21;8.23;;;5.07;;
27758;SDS011;15148;48.972;12.794;2023-10-08T10:56:23;8.38;;;4.68;;
27758;SDS011;15148;48.972;12.794;2023-10-08T11:01:32;9.75;;;5.45;;
27758;SDS011;15148;48.972;12.794;2023-10-08T11:06:48;7.80;;;4.65;;
27758;SDS011;15148;48.972;12.794;2023-10-08T11:11:52;7.03;;;4.88;;
27758;SDS011;15148;48.972;12.794;2023-10-08T11:16:56;6.88;;;4.28;;
27758;SDS011;15148;48.972;12.794;2023-10-08T11:21:58;7.45;;;4.53;;
27758;SDS011;15148;48.972;12.794;2023-10-08T11:27:01;8.77;;;5.03;;
27758;SDS011;15148;48.972;12.794;2023-10-08T11:32:17;9.07;;;4.72;;
27758;SDS011;15148;48.972;12.794;2023-10-08T11:37:30;6.43;;;3.90;;
27758;SDS011;15148;48.972;12.794;2023-10-08T11:42:36;6.82;;;4.68;;
27758;SDS011;15148;48.972;12.794;2023-10-08T11:47:45;7.88;;;4.63;;
27758;SDS011;15148;48.972;12.794;2023-10-08T11:52:50;7.38;;;4.97;;
27758;SDS011;15148;48.972;12.794;2023-10-08T11:57:52;7.25;;;4.35;;
27758;SDS011;15148;48.972;12.794;2023-10-08T12:02:53;8.55;;;5.03;;
27758;SDS011;15148;48.972;12.794;2023-10-08T12:07:56;9.15;;;5.00;;
27758;SDS011;15148;48.972;12.794;2023-10-08T12:13:00;8.15;;;5.00;;
27758;SDS011;15148;48.972;12.794;2023-10-08T12:18:02;10.07;;;5.35;;
27758;SDS011;15148;48.972;12.794;2023-10-08T12:23:10;9.63;;;4.93;;
27758;SDS011;15148;48.972;12.794;2023-10-08T12:28:20;6.75;;;4.70;;
27758;SDS011;15148;48.972;12.794;2023-10-08T12:33:22;9.20;;;5.05;;
27758;SDS011;15148;48.972;12.794;2023-10-08T12:38:27;7.50;;;5.00;;
27758;SDS011;15148;48.972;12.794;2023-10-08T12:43:29;8.80;;;5.40;;
27758;SDS011;15148;48.972;12.794;2023-10-08T12:48:32;6.72;;;4.70;;
27758;SDS011;15148;48.972;12.794;2023-10-08T12:53:34;7.22;;;4.95;;
27758;SDS011;15148;48.972;12.794;2023-10-08T12:58:36;8.35;;;5.40;;
27758;SDS011;15148;48.972;12.794;2023-10-08T13:03:46;6.68;;;4.38;;
27758;SDS011;15148;48.972;12.794;2023-10-08T13:08:51;7.63;;;4.90;;
27758;SDS011;15148;48.972;12.794;2023-10-08T13:13:55;8.07;;;5.20;;
27758;SDS011;15148;48.972;12.794;2023-10-08T13:18:58;11.13;;;6.47;;
27758;SDS011;15148;48.972;12.794;2023-10-08T13:24:01;9.30;;;5.82;;
27758;SDS011;15148;48.972;12.794;2023-10-08T13:29:04;8.23;;;5.47;;
27758;SDS011;15148;48.972;12.794;2023-10-08T13:34:11;11.80;;;6.07;;
27758;SDS011;15148;48.972;12.794;2023-10-08T13:39:14;11.30;;;6.03;;
27758;SDS011;15148;48.972;12.794;2023-10-08T13:44:20;9.00;;;5.50;;
27758;SDS011;15148;48.972;12.794;2023-10-08T13:49:31;9.10;;;5.53;;
27758;SDS011;15148;48.972;12.794;2023-10-08T13:54:33;9.57;;;5.78;;
27758;SDS011;15148;48.972;12.794;2023-10-08T13:59:40;8.30;;;5.22;;
27758;SDS011;15148;48.972;12.794;2023-10-08T14:04:44;7.15;;;4.97;;
27758;SDS011;15148;48.972;12.794;2023-10-08T14:09:46;12.20;;;5.47;;
27758;SDS011;15148;48.972;12.794;2023-10-08T14:14:48;5.90;;;4.90;;
27758;SDS011;15148;48.972;12.794;2023-10-08T14:19:50;8.27;;;4.70;;
27758;SDS011;15148;48.972;12.794;2023-10-08T14:25:01;7.90;;;4.53;;
27758;SDS011;15148;48.972;12.794;2023-10-08T14:30:04;9.93;;;5.10;;
27758;SDS011;15148;48.972;12.794;2023-10-08T14:35:07;7.65;;;5.20;;
27758;SDS011;15148;48.972;12.794;2023-10-08T14:40:28;9.43;;;5.05;;
27758;SDS011;15148;48.972;12.794;2023-10-08T14:45:48;8.65;;;4.63;;
27758;SDS011;15148;48.972;12.794;2023-10-08T14:50:50;11.18;;;5.45;;
27758;SDS011;15148;48.972;12.794;2023-10-08T14:55:54;12.65;;;5.85;;
27758;SDS011;15148;48.972;12.794;2023-10-08T15:00:56;10.27;;;5.75;;
27758;SDS011;15148;48.972;12.794;2023-10-08T15:05:58;8.80;;;6.05;;
27758;SDS011;15148;48.972;12.794;2023-10-08T15:11:00;15.10;;;5.95;;
27758;SDS011;15148;48.972;12.794;2023-10-08T15:16:04;8.93;;;5.68;;
27758;SDS011;15148;48.972;12.794;2023-10-08T15:21:08;8.30;;;4.47;;
27758;SDS011;15148;48.972;12.794;2023-10-08T15:26:11;8.45;;;4.88;;
27758;SDS011;15148;48.972;12.794;2023-10-08T15:31:13;5.15;;;4.20;;
27758;SDS011;15148;48.972;12.794;2023-10-08T15:36:15;7.90;;;4.38;;
27758;SDS011;15148;48.972;12.794;2023-10-08T15:41:17;6.18;;;4.18;;
27758;SDS011;15148;48.972;12.794;2023-10-08T15:46:21;7.43;;;4.68;;
27758;SDS011;15148;48.972;12.794;2023-10-08T15:51:23;6.20;;;3.95;;
27758;SDS011;15148;48.972;12.794;2023-10-08T15:56:31;8.88;;;4.28;;
27758;SDS011;15148;48.972;12.794;2023-10-08T16:01:33;5.80;;;4.05;;
27758;SDS011;15148;48.972;12.794;2023-10-08T16:06:35;8.10;;;4.30;;
27758;SDS011;15148;48.972;12.794;2023-10-08T16:11:36;7.85;;;4.15;;
27758;SDS011;15148;48.972;12.794;2023-10-08T16:16:39;10.32;;;4.72;;
27758;SDS011;15148;48.972;12.794;2023-10-08T16:21:42;9.32;;;5.20;;
27758;SDS011;15148;48.972;12.794;2023-10-08T16:26:45;7.75;;;4.72;;
27758;SDS011;15148;48.972;12.794;2023-10-08T16:31:47;11.15;;;4.80;;
27758;SDS011;15148;48.972;12.794;2023-10-08T16:36:49;8.05;;;5.50;;
27758;SDS011;15148;48.972;12.794;2023-10-08T16:41:53;10.35;;;5.50;;
27758;SDS011;15148;48.972;12.794;2023-10-08T16:46:55;9.43;;;5.95;;
27758;SDS011;15148;48.972;12.794;2023-10-08T16:51:57;8.40;;;5.05;;
27758;SDS011;15148;48.972;12.794;2023-10-08T16:57:00;11.90;;;6.05;;
27758;SDS011;15148;48.972;12.794;2023-10-08T17:02:03;16.20;;;6.13;;
27758;SDS011;15148;48.972;12.794;2023-10-08T17:07:05;11.50;;;5.43;;
27758;SDS011;15148;48.972;12.794;2023-10-08T17:12:07;10.13;;;5.25;;
27758;SDS011;15148;48.972;12.794;2023-10-08T17:17:11;7.78;;;5.45;;
27758;SDS011;15148;48.972;12.794;2023-10-08T17:22:13;9.90;;;5.20;;
27758;SDS011;15148;48.972;12.794;2023-10-08T17:27:15;11.45;;;5.93;;
27758;SDS011;15148;48.972;12.794;2023-10-08T17:32:17;12.20;;;5.68;;
27758;SDS011;15148;48.972;12.794;2023-10-08T17:37:23;12.52;;;5.75;;
27758;SDS011;15148;48.972;12.794;2023-10-08T17:42:25;10.15;;;5.47;;
27758;SDS011;15148;48.972;12.794;2023-10-08T17:47:28;11.73;;;5.82;;
27758;SDS011;15148;48.972;12.794;2023-10-08T17:52:30;9.10;;;5.55;;
27758;SDS011;15148;48.972;12.794;2023-10-08T17:57:32;8.27;;;5.03;;
27758;SDS011;15148;48.972;12.794;2023-10-08T18:02:35;10.30;;;5.05;;
27758;SDS011;15148;48.972;12.794;2023-10-08T18:07:37;6.63;;;5.18;;
27758;SDS011;15148;48.972;12.794;2023-10-08T18:12:39;9.68;;;5.18;;
27758;SDS011;15148;48.972;12.794;2023-10-08T18:17:42;7.22;;;5.10;;
27758;SDS011;15148;48.972;12.794;2023-10-08T18:22:49;11.23;;;6.30;;
27758;SDS011;15148;48.972;12.794;2023-10-08T18:27:52;8.23;;;5.22;;
27758;SDS011;15148;48.972;12.794;2023-10-08T18:32:55;11.07;;;4.93;;
27758;SDS011;15148;48.972;12.794;2023-10-08T18:37:57;9.73;;;5.32;;
27758;SDS011;15148;48.972;12.794;2023-10-08T18:43:01;10.02;;;5.80;;
27758;SDS011;15148;48.972;12.794;2023-10-08T18:48:03;9.90;;;5.50;;
27758;SDS011;15148;48.972;12.794;2023-10-08T18:53:06;7.72;;;5.15;;
27758;SDS011;15148;48.972;12.794;2023-10-08T18:58:08;8.52;;;5.10;;
27758;SDS011;15148;48.972;12.794;2023-10-08T19:03:11;5.88;;;4.65;;
27758;SDS011;15148;48.972;12.794;2023-10-08T19:08:14;9.75;;;5.22;;
27758;SDS011;15148;48.972;12.794;2023-10-08T19:13:16;8.55;;;5.57;;
27758;SDS011;15148;48.972;12.794;2023-10-08T19:18:19;9.82;;;5.90;;
27758;SDS011;15148;48.972;12.794;2023-10-08T19:23:23;9.80;;;5.85;;
27758;SDS011;15148;48.972;12.794;2023-10-08T19:28:26;9.27;;;5.05;;
27758;SDS011;15148;48.972;12.794;2023-10-08T19:33:28;8.70;;;6.50;;
27758;SDS011;15148;48.972;12.794;2023-10-08T19:38:31;11.00;;;6.10;;
27758;SDS011;15148;48.972;12.794;2023-10-08T19:43:32;10.77;;;6.40;;
27758;SDS011;15148;48.972;12.794;2023-10-08T19:48:34;10.77;;;6.13;;
27758;SDS011;15148;48.972;12.794;2023-10-08T19:53:38;12.93;;;7.22;;
27758;SDS011;15148;48.972;12.794;2023-10-08T19:58:40;10.38;;;6.07;;
27758;SDS011;15148;48.972;12.794;2023-10-08T20:03:42;6.93;;;5.40;;
27758;SDS011;15148;48.972;12.794;2023-10-08T20:08:44;10.02;;;6.03;;
27758;SDS011;15148;48.972;12.794;2023-10-08T20:13:47;11.50;;;6.13;;
27758;SDS011;15148;48.972;12.794;2023-10-08T20:18:50;11.00;;;6.13;;
27758;SDS011;15148;48.972;12.794;2023-10-08T20:23:52;12.18;;;5.88;;
27758;SDS011;15148;48.972;12.794;2023-10-08T20:28:54;9.10;;;6.82;;
27758;SDS011;15148;48.972;12.794;2023-10-08T20:33:58;11.27;;;7.78;;
27758;SDS011;15148;48.972;12.794;2023-10-08T20:39:01;8.13;;;5.85;;
27758;SDS011;15148;48.972;12.794;2023-10-08T20:44:03;14.98;;;7.30;;
27758;SDS011;15148;48.972;12.794;2023-10-08T20:49:06;12.18;;;6.70;;
27758;SDS011;15148;48.972;12.794;2023-10-08T20:54:08;11.20;;;7.35;;
27758;SDS011;15148;48.972;12.794;2023-10-08T20:59:09;9.43;;;6.60;;
27758;SDS011;15148;48.972;12.794;2023-10-08T21:04:13;10.00;;;6.32;;
27758;SDS011;15148;48.972;12.794;2023-10-08T21:09:15;10.55;;;7.15;;
27758;SDS011;15148;48.972;12.794;2023-10-08T21:14:17;10.32;;;7.35;;
27758;SDS011;15148;48.972;12.794;2023-10-08T21:19:19;9.30;;;6.55;;
27758;SDS011;15148;48.972;12.794;2023-10-08T21:24:21;7.40;;;6.57;;
27758;SDS011;15148;48.972;12.794;2023-10-08T21:29:23;13.23;;;6.40;;
27758;SDS011;15148;48.972;12.794;2023-10-08T21:34:25;9.10;;;6.10;;
27758;SDS011;15148;48.972;12.794;2023-10-08T21:39:30;8.52;;;6.05;;
27758;SDS011;15148;48.972;12.794;2023-10-08T21:44:33;6.88;;;5.80;;
27758;SDS011;15148;48.972;12.794;2023-10-08T21:49:35;12.93;;;6.45;;
27758;SDS011;15148;48.972;12.794;2023-10-08T21:54:37;8.98;;;5.75;;
27758;SDS011;15148;48.972;12.794;2023-10-08T21:59:39;9.07;;;6.57;;
27758;SDS011;15148;48.972;12.794;2023-10-08T22:04:41;9.90;;;7.18;;
27758;SDS011;15148;48.972;12.794;2023-10-08T22:09:43;8.68;;;6.50;;
27758;SDS011;15148;48.972;12.794;2023-10-08T22:14:45;8.80;;;6.43;;
27758;SDS011;15148;48.972;12.794;2023-10-08T22:19:47;9.95;;;7.05;;
27758;SDS011;15148;48.972;12.794;2023-10-08T22:24:50;8.15;;;6.60;;
27758;SDS011;15148;48.972;12.794;2023-10-08T22:29:52;11.85;;;6.50;;
27758;SDS011;15148;48.972;12.794;2023-10-08T22:34:55;9.40;;;6.28;;
27758;SDS011;15148;48.972;12.794;2023-10-08T22:40:11;7.68;;;6.07;;
27758;SDS011;15148;48.972;12.794;2023-10-08T22:45:18;7.55;;;6.28;;
27758;SDS011;15148;48.972;12.794;2023-10-08T22:50:21;6.35;;;5.75;;
27758;SDS011;15148;48.972;12.794;2023-10-08T22:55:46;8.90;;;6.13;;
27758;SDS011;15148;48.972;12.794;2023-10-08T23:00:48;10.00;;;6.40;;
27758;SDS011;15148;48.972;12.794;2023-10-08T23:05:51;7.85;;;6.30;;
27758;SDS011;15148;48.972;12.794;2023-10-08T23:10:53;7.35;;;6.20;;
27758;SDS011;15148;48.972;12.794;2023-10-08T23:15:56;10.65;;;6.10;;
27758;SDS011;15148;48.972;12.794;2023-10-08T23:21:01;8.98;;;5.80;;
27758;SDS011;15148;48.972;12.794;2023-10-08T23:26:08;8.88;;;5.75;;
27758;SDS011;15148;48.972;12.794;2023-10-08T23:31:17;9.05;;;6.15;;
27758;SDS011;15148;48.972;12.794;2023-10-08T23:36:19;7.28;;;6.00;;
27758;SDS011;15148;48.972;12.794;2023-10-08T23:41:28;9.82;;;7.25;;
27758;SDS011;15148;48.972;12.794;2023-10-08T23:46:34;10.63;;;6.75;;
27758;SDS011;15148;48.972;12.794;2023-10-08T23:51:45;6.90;;;5.68;;
